Time;durP1;ratioP1;P1;durP2;ratioP2;P2;SDS_P1;SDS_P2;PMS_P1;PMS_P2;Temp;Humidity;BMP_temperature;BMP_pressure;BME280_temperature;BME280_humidity;BME280_pressure;Samples;Min_cycle;Max_cycle;Signal;HPM_P1;HPM_P2
2021/06/08 00:00:16;;;;;;;8.10;7.03;;;16.70;75.10;;;;;;5136564;27;20035;-37
2021/06/08 00:02:42;;;;;;;9.23;7.63;;;16.60;75.30;;;;;;5136183;27;20055;-37
2021/06/08 00:05:09;;;;;;;8.60;7.32;;;16.50;75.60;;;;;;5136523;27;20038;-37
2021/06/08 00:07:35;;;;;;;11.82;6.25;;;16.30;75.80;;;;;;5136136;27;20110;-37
2021/06/08 00:10:00;;;;;;;9.30;6.63;;;16.40;75.30;;;;;;5136265;27;20046;-38
2021/06/08 00:12:26;;;;;;;12.48;6.43;;;16.30;75.10;;;;;;5136220;27;20030;-37
2021/06/08 00:14:52;;;;;;;10.73;7.60;;;16.30;74.80;;;;;;5136132;27;20482;-37
2021/06/08 00:17:18;;;;;;;12.60;6.32;;;16.30;74.40;;;;;;5136094;27;20098;-37
2021/06/08 00:19:43;;;;;;;7.78;6.38;;;16.30;74.60;;;;;;5136441;27;20416;-37
2021/06/08 00:22:09;;;;;;;8.00;6.50;;;16.20;74.70;;;;;;5136066;27;20034;-37
2021/06/08 00:24:35;;;;;;;10.23;6.68;;;16.20;74.80;;;;;;5135663;27;20394;-37
2021/06/08 00:27:00;;;;;;;9.88;6.60;;;16.20;74.80;;;;;;5136045;27;20470;-37
2021/06/08 00:29:26;;;;;;;9.43;6.60;;;16.20;74.40;;;;;;5135860;27;20059;-37
2021/06/08 00:31:52;;;;;;;9.93;7.15;;;16.10;74.30;;;;;;5135586;27;20094;-37
2021/06/08 00:34:17;;;;;;;9.75;6.60;;;16.10;74.40;;;;;;5135653;27;20042;-38
2021/06/08 00:36:43;;;;;;;11.15;7.30;;;16.10;74.40;;;;;;5135968;27;20467;-37
2021/06/08 00:39:09;;;;;;;9.93;7.47;;;16.00;75.00;;;;;;5134321;27;20107;-37
2021/06/08 00:41:40;;;;;;;12.48;6.55;;;16.00;74.80;;;;;;5135788;27;20098;-37
2021/06/08 00:44:07;;;;;;;10.68;6.82;;;15.90;74.90;;;;;;5134212;27;20076;-37
2021/06/08 00:46:33;;;;;;;6.82;6.13;;;15.80;75.40;;;;;;5135352;27;20484;-37
2021/06/08 00:49:00;;;;;;;11.02;6.95;;;15.80;75.50;;;;;;5135210;27;20015;-37
2021/06/08 00:51:25;;;;;;;9.38;6.63;;;15.70;75.90;;;;;;5135154;27;20027;-37
2021/06/08 00:53:53;;;;;;;8.52;6.65;;;15.60;76.20;;;;;;5135073;27;20015;-37
2021/06/08 00:56:19;;;;;;;8.07;6.68;;;15.70;75.90;;;;;;5135177;27;20023;-37
2021/06/08 00:58:45;;;;;;;8.90;6.53;;;15.80;75.30;;;;;;5135447;27;20025;-37
2021/06/08 01:01:12;;;;;;;9.88;7.38;;;15.70;75.70;;;;;;5134828;27;20023;-36
2021/06/08 01:03:37;;;;;;;11.60;7.13;;;15.70;75.90;;;;;;5134932;27;20020;-36
2021/06/08 01:06:03;;;;;;;9.38;6.88;;;15.70;75.90;;;;;;5135179;27;20099;-36
2021/06/08 01:08:29;;;;;;;10.15;7.63;;;15.80;75.50;;;;;;5134869;27;20026;-36
2021/06/08 01:10:55;;;;;;;10.48;6.32;;;15.70;75.70;;;;;;5135628;27;20027;-36
2021/06/08 01:13:21;;;;;;;9.77;7.18;;;15.60;75.80;;;;;;5134917;27;20030;-36
2021/06/08 01:15:48;;;;;;;13.13;7.97;;;15.50;76.10;;;;;;5134804;27;20420;-36
2021/06/08 01:18:14;;;;;;;16.75;7.57;;;15.50;76.20;;;;;;5134689;27;20023;-36
2021/06/08 01:20:40;;;;;;;8.93;6.75;;;15.60;75.80;;;;;;5135022;27;20082;-36
2021/06/08 01:23:07;;;;;;;9.32;7.38;;;15.50;76.30;;;;;;5116201;27;20031;-37
2021/06/08 01:25:32;;;;;;;10.13;7.05;;;15.50;76.30;;;;;;5134428;27;20043;-36
2021/06/08 01:27:59;;;;;;;8.43;6.95;;;15.30;77.00;;;;;;5134379;27;20033;-36
2021/06/08 01:30:26;;;;;;;18.67;7.88;;;15.30;77.30;;;;;;5134640;27;20064;-36
2021/06/08 01:32:53;;;;;;;11.52;7.18;;;15.20;77.70;;;;;;5134779;27;20022;-36
2021/06/08 01:35:21;;;;;;;13.10;7.00;;;15.30;77.00;;;;;;5133307;27;20089;-36
2021/06/08 01:37:48;;;;;;;8.95;7.38;;;15.20;77.30;;;;;;5134763;27;20065;-36
2021/06/08 01:40:16;;;;;;;10.20;8.05;;;15.20;77.40;;;;;;5134724;27;20375;-36
2021/06/08 01:42:42;;;;;;;10.77;7.72;;;15.20;77.60;;;;;;5134435;27;20027;-36
2021/06/08 01:45:09;;;;;;;9.07;7.78;;;15.20;77.30;;;;;;5134694;27;20497;-36
2021/06/08 01:47:35;;;;;;;9.77;7.72;;;15.20;77.60;;;;;;5134211;27;20439;-36
2021/06/08 01:50:01;;;;;;;11.60;7.90;;;15.10;77.80;;;;;;5134334;27;20062;-36
2021/06/08 01:52:41;;;;;;;8.23;6.97;;;15.20;77.90;;;;;;5134404;27;20050;-36
2021/06/08 01:55:15;;;;;;;9.98;7.43;;;15.10;78.00;;;;;;5134399;27;20075;-36
2021/06/08 01:57:49;;;;;;;10.85;7.80;;;15.30;77.40;;;;;;5134192;27;20035;-36
2021/06/08 02:00:55;;;;;;;9.60;7.88;;;15.30;77.20;;;;;;5132999;28;20071;-36
2021/06/08 02:03:38;;;;;;;12.38;9.23;;;15.10;77.80;;;;;;5085672;28;20034;-36
2021/06/08 02:06:20;;;;;;;10.00;8.23;;;15.00;78.40;;;;;;5133303;27;20443;-36
2021/06/08 02:08:51;;;;;;;13.63;7.75;;;15.00;78.60;;;;;;5138950;27;20114;-36
2021/06/08 02:11:29;;;;;;;13.13;8.18;;;15.10;78.40;;;;;;5138804;27;20024;-36
2021/06/08 02:14:04;;;;;;;12.50;8.68;;;15.00;78.80;;;;;;5139255;27;20474;-36
2021/06/08 02:16:42;;;;;;;9.98;8.38;;;15.00;79.00;;;;;;5138492;27;20467;-37
2021/06/08 02:19:10;;;;;;;10.13;8.68;;;15.10;78.90;;;;;;5138638;27;20023;-36
2021/06/08 02:21:42;;;;;;;9.30;8.15;;;15.20;78.80;;;;;;5138292;27;20027;-36
2021/06/08 02:24:11;;;;;;;9.80;7.97;;;15.20;78.70;;;;;;5138167;27;20031;-36
2021/06/08 02:26:41;;;;;;;10.05;7.65;;;15.20;78.70;;;;;;5138108;27;20510;-37
2021/06/08 02:29:07;;;;;;;11.75;8.40;;;15.30;78.40;;;;;;5138210;27;20404;-37
2021/06/08 02:31:34;;;;;;;8.65;7.57;;;15.30;78.40;;;;;;5138296;27;20030;-36
2021/06/08 02:34:01;;;;;;;7.90;7.13;;;15.60;77.80;;;;;;5138005;27;20462;-36
2021/06/08 02:36:28;;;;;;;7.97;6.97;;;15.40;78.70;;;;;;5138001;27;20112;-37
2021/06/08 02:38:56;;;;;;;12.82;8.30;;;15.40;78.70;;;;;;5136718;27;20118;-37
2021/06/08 02:41:23;;;;;;;9.38;6.65;;;15.50;78.40;;;;;;5137952;27;20027;-36
2021/06/08 02:43:51;;;;;;;14.45;7.00;;;15.40;78.80;;;;;;5138120;27;20019;-36
2021/06/08 02:46:18;;;;;;;9.20;6.30;;;15.40;78.90;;;;;;5137722;27;20074;-37
2021/06/08 02:48:46;;;;;;;9.20;7.32;;;15.30;79.30;;;;;;5136526;27;20483;-37
2021/06/08 02:51:13;;;;;;;10.77;7.47;;;15.30;79.40;;;;;;5137773;27;20015;-37
2021/06/08 02:53:39;;;;;;;10.48;7.68;;;15.40;79.00;;;;;;5137671;27;20159;-37
2021/06/08 02:56:06;;;;;;;11.43;7.75;;;15.60;78.80;;;;;;5137967;27;20094;-37
2021/06/08 02:58:33;;;;;;;7.90;6.72;;;15.70;78.80;;;;;;5137925;27;20474;-37
2021/06/08 03:00:58;;;;;;;7.15;6.45;;;15.50;79.40;;;;;;5137616;27;20059;-37
2021/06/08 03:03:32;;;;;;;11.80;7.85;;;15.50;79.20;;;;;;5136135;27;20355;-35
2021/06/08 03:06:08;;;;;;;12.32;9.85;;;15.50;79.30;;;;;;5138078;27;20038;-36
2021/06/08 03:08:45;;;;;;;15.57;11.73;;;15.60;80.10;;;;;;5137546;27;20381;-36
2021/06/08 03:11:19;;;;;;;12.13;10.50;;;15.70;79.50;;;;;;5137477;27;20027;-36
2021/06/08 03:13:46;;;;;;;11.93;10.05;;;15.70;79.70;;;;;;5137609;27;20023;-35
2021/06/08 03:16:14;;;;;;;15.60;11.32;;;15.80;79.30;;;;;;5137520;27;20023;-35
2021/06/08 03:18:42;;;;;;;14.40;10.75;;;15.70;79.50;;;;;;5137126;27;20068;-35
2021/06/08 03:21:16;;;;;;;13.13;11.13;;;15.60;80.20;;;;;;5137000;27;20023;-35
2021/06/08 03:23:49;;;;;;;13.65;11.27;;;15.50;80.20;;;;;;5137134;27;20026;-35
2021/06/08 03:26:16;;;;;;;16.83;12.15;;;15.50;80.60;;;;;;5137025;27;20015;-36
2021/06/08 03:28:43;;;;;;;14.82;11.07;;;15.50;80.80;;;;;;5135803;27;20171;-36
2021/06/08 03:31:11;;;;;;;19.75;13.25;;;15.50;80.70;;;;;;5136961;27;20355;-37
2021/06/08 03:33:38;;;;;;;14.18;11.88;;;15.50;81.00;;;;;;5137199;27;20478;-37
2021/06/08 03:36:06;;;;;;;17.08;12.70;;;15.50;81.20;;;;;;5136816;27;20038;-37
2021/06/08 03:38:33;;;;;;;17.90;13.38;;;15.60;81.30;;;;;;5137285;27;20031;-37
2021/06/08 03:41:00;;;;;;;15.07;12.55;;;15.60;81.30;;;;;;5136948;27;20420;-37
2021/06/08 03:43:27;;;;;;;16.60;13.25;;;15.70;81.50;;;;;;5136973;27;20102;-36
2021/06/08 03:45:52;;;;;;;16.42;14.25;;;15.60;81.70;;;;;;5136707;27;20023;-37
2021/06/08 03:48:19;;;;;;;20.65;13.55;;;15.60;82.20;;;;;;5136837;27;20106;-37
2021/06/08 03:50:48;;;;;;;15.73;13.50;;;15.50;82.40;;;;;;5136587;27;20023;-37
2021/06/08 03:53:14;;;;;;;17.00;14.18;;;15.50;82.50;;;;;;5136577;27;20546;-38
2021/06/08 03:55:40;;;;;;;14.82;12.90;;;15.50;82.70;;;;;;5135094;27;20106;-36
2021/06/08 03:58:12;;;;;;;16.42;10.95;;;15.70;82.30;;;;;;5136329;27;20083;-35
2021/06/08 04:00:40;;;;;;;10.40;8.77;;;15.70;81.60;;;;;;5137351;27;20027;-36
2021/06/08 04:03:10;;;;;;;12.80;8.57;;;15.40;81.90;;;;;;5135048;27;20023;-37
2021/06/08 04:05:37;;;;;;;12.40;8.32;;;15.50;81.60;;;;;;5136520;27;20027;-36
2021/06/08 04:08:08;;;;;;;11.30;9.07;;;15.40;82.00;;;;;;5136272;27;20051;-37
2021/06/08 04:10:35;;;;;;;12.13;10.18;;;15.30;82.70;;;;;;5134991;27;20478;-36
2021/06/08 04:13:03;;;;;;;15.30;10.07;;;15.20;83.10;;;;;;5136401;27;20030;-37
2021/06/08 04:15:29;;;;;;;14.85;10.90;;;15.30;83.10;;;;;;5136458;27;20016;-37
2021/06/08 04:17:56;;;;;;;18.75;13.57;;;15.30;83.20;;;;;;5136663;27;20105;-36
2021/06/08 04:20:24;;;;;;;20.10;14.93;;;15.50;83.70;;;;;;5136088;27;20063;-36
2021/06/08 04:22:56;;;;;;;24.10;15.15;;;15.70;82.80;;;;;;5136235;27;20498;-37
2021/06/08 04:25:22;;;;;;;16.15;13.93;;;15.80;82.20;;;;;;5135716;27;20051;-37
2021/06/08 04:27:48;;;;;;;17.88;13.73;;;15.80;82.30;;;;;;5136726;27;20031;-37
2021/06/08 04:30:14;;;;;;;24.25;14.98;;;15.80;82.00;;;;;;5134204;27;20026;-37
2021/06/08 04:32:40;;;;;;;18.40;14.55;;;15.80;82.30;;;;;;5135494;27;20136;-37
2021/06/08 04:35:07;;;;;;;18.05;15.25;;;15.80;82.30;;;;;;5135928;27;20100;-37
2021/06/08 04:37:34;;;;;;;18.35;14.07;;;15.80;82.40;;;;;;5135708;27;20098;-37
2021/06/08 04:39:59;;;;;;;18.67;15.27;;;15.80;82.40;;;;;;5135725;27;20020;-36
2021/06/08 04:42:25;;;;;;;21.08;15.77;;;15.60;82.70;;;;;;5135756;27;20107;-37
2021/06/08 04:44:52;;;;;;;19.30;15.48;;;15.60;83.20;;;;;;5135788;27;20443;-36
2021/06/08 04:47:20;;;;;;;22.48;16.02;;;15.40;83.70;;;;;;5135744;27;20020;-38
2021/06/08 04:49:46;;;;;;;23.80;15.93;;;15.50;83.70;;;;;;5135443;27;20481;-37
2021/06/08 04:52:12;;;;;;;21.50;16.42;;;15.40;84.10;;;;;;5135357;27;20019;-36
2021/06/08 04:54:39;;;;;;;25.08;16.00;;;15.50;83.90;;;;;;5135645;27;20431;-37
2021/06/08 04:57:06;;;;;;;21.05;16.77;;;15.50;84.10;;;;;;5135468;27;20470;-36
2021/06/08 05:00:00;;;;;;;21.88;17.20;;;15.60;83.90;;;;;;5135129;27;20058;-37
2021/06/08 05:02:40;;;;;;;20.80;15.40;;;15.60;83.80;;;;;;5135699;27;20086;-37
2021/06/08 05:05:20;;;;;;;25.08;16.90;;;15.70;83.70;;;;;;5133907;27;20034;-37
2021/06/08 05:07:56;;;;;;;21.10;16.00;;;15.80;83.40;;;;;;5133637;27;20030;-37
2021/06/08 05:10:24;;;;;;;25.50;16.23;;;15.80;83.30;;;;;;5135027;27;20031;-36
2021/06/08 05:12:52;;;;;;;20.33;16.80;;;16.00;82.60;;;;;;5134944;27;20458;-36
2021/06/08 05:15:19;;;;;;;19.75;15.75;;;16.10;82.10;;;;;;5135335;27;20474;-36
2021/06/08 05:17:46;;;;;;;23.02;16.05;;;16.20;81.80;;;;;;5134835;27;20034;-37
2021/06/08 05:20:13;;;;;;;19.63;15.23;;;16.30;81.30;;;;;;5134561;27;20051;-37
2021/06/08 05:22:40;;;;;;;17.38;15.07;;;16.60;79.90;;;;;;5134450;27;20027;-37
2021/06/08 05:25:08;;;;;;;22.80;14.35;;;16.70;79.00;;;;;;5134460;27;20130;-36
2021/06/08 05:27:34;;;;;;;17.77;13.52;;;16.80;76.70;;;;;;5134484;27;20031;-37
2021/06/08 05:30:00;;;;;;;18.23;13.25;;;16.90;75.90;;;;;;5134708;27;20030;-37
2021/06/08 05:32:28;;;;;;;15.48;12.13;;;17.10;75.90;;;;;;5134608;27;20027;-37
2021/06/08 05:34:53;;;;;;;19.50;12.88;;;17.30;74.40;;;;;;5134860;27;20023;-37
2021/06/08 05:37:19;;;;;;;15.70;11.45;;;17.30;74.10;;;;;;5134590;27;20032;-37
2021/06/08 05:39:46;;;;;;;17.77;11.88;;;17.20;73.90;;;;;;5134471;27;20023;-38
2021/06/08 05:42:17;;;;;;;15.10;11.60;;;17.40;72.70;;;;;;5133687;27;20092;-36
2021/06/08 05:44:42;;;;;;;18.77;11.63;;;17.40;72.00;;;;;;5133010;27;20023;-36
2021/06/08 05:47:09;;;;;;;15.90;11.57;;;17.50;71.40;;;;;;5134464;27;20362;-36
2021/06/08 05:49:37;;;;;;;15.68;12.23;;;17.30;71.70;;;;;;5134502;27;20032;-37
2021/06/08 05:52:04;;;;;;;16.48;12.30;;;17.50;72.00;;;;;;5134439;27;20023;-37
2021/06/08 05:54:31;;;;;;;17.70;11.02;;;17.60;71.60;;;;;;5132783;27;20050;-37
2021/06/08 05:56:57;;;;;;;11.63;10.07;;;17.80;69.40;;;;;;5134680;27;20506;-36
2021/06/08 05:59:24;;;;;;;15.75;10.45;;;17.90;68.40;;;;;;5134308;27;20355;-36
2021/06/08 06:01:51;;;;;;;15.60;11.32;;;17.90;69.10;;;;;;5135245;27;20023;-37
2021/06/08 06:04:17;;;;;;;15.07;9.77;;;18.00;68.70;;;;;;5133986;28;20034;-38
2021/06/08 06:06:45;;;;;;;18.65;11.43;;;17.80;69.50;;;;;;5133854;27;20073;-37
2021/06/08 06:09:12;;;;;;;13.70;10.75;;;18.00;68.80;;;;;;5133806;27;20042;-37
2021/06/08 06:11:41;;;;;;;14.27;10.52;;;17.90;69.10;;;;;;5133902;27;20090;-37
2021/06/08 06:14:07;;;;;;;13.95;9.70;;;17.90;69.50;;;;;;5134035;27;20046;-37
2021/06/08 06:16:54;;;;;;;14.00;10.55;;;18.10;68.30;;;;;;5134295;27;20144;-36
2021/06/08 06:19:24;;;;;;;12.82;9.00;;;18.30;66.30;;;;;;5134056;27;20102;-36
2021/06/08 06:21:55;;;;;;;14.65;10.57;;;18.50;65.10;;;;;;5133729;28;20111;-36
2021/06/08 06:24:22;;;;;;;15.48;10.00;;;18.50;65.10;;;;;;5133617;27;20031;-36
2021/06/08 06:26:48;;;;;;;18.02;9.68;;;18.80;64.60;;;;;;5133930;27;20038;-37
2021/06/08 06:29:15;;;;;;;13.45;9.82;;;18.80;64.70;;;;;;5133889;27;20462;-37
2021/06/08 06:31:48;;;;;;;16.40;9.60;;;18.80;64.30;;;;;;5134105;27;20450;-38
2021/06/08 06:34:18;;;;;;;12.13;9.32;;;19.00;64.00;;;;;;5134037;27;20119;-37
2021/06/08 06:36:47;;;;;;;12.85;9.90;;;18.80;64.50;;;;;;5132983;28;20030;-39
2021/06/08 06:39:32;;;;;;;16.02;8.98;;;18.80;63.10;;;;;;5133892;27;20034;-37
2021/06/08 06:42:02;;;;;;;16.10;9.05;;;18.80;63.40;;;;;;5133891;27;20110;-37
2021/06/08 06:44:31;;;;;;;13.18;9.73;;;18.90;63.60;;;;;;5134003;27;20029;-37
2021/06/08 06:46:57;;;;;;;14.20;9.88;;;18.90;63.90;;;;;;5133839;27;20035;-37
2021/06/08 06:49:24;;;;;;;11.25;10.07;;;19.00;63.30;;;;;;5133722;27;20415;-37
2021/06/08 06:51:50;;;;;;;12.75;9.68;;;19.00;63.20;;;;;;5133647;27;20047;-36
2021/06/08 06:54:17;;;;;;;10.80;9.30;;;19.30;63.10;;;;;;5136016;27;20025;-36
2021/06/08 06:56:44;;;;;;;12.60;9.13;;;19.10;62.80;;;;;;5137202;27;20034;-37
2021/06/08 06:59:10;;;;;;;13.50;9.65;;;19.30;62.10;;;;;;5137325;27;20027;-37
2021/06/08 07:01:36;;;;;;;13.82;9.95;;;19.60;61.80;;;;;;5136991;27;20037;-37
2021/06/08 07:04:05;;;;;;;15.63;9.18;;;19.70;60.10;;;;;;5137057;27;20513;-37
2021/06/08 07:06:31;;;;;;;12.55;10.70;;;19.60;61.10;;;;;;5136751;27;20019;-37
2021/06/08 07:08:59;;;;;;;13.18;9.40;;;19.80;60.20;;;;;;5136823;27;20047;-37
2021/06/08 07:11:25;;;;;;;16.65;9.60;;;20.00;60.10;;;;;;5136568;27;20015;-37
2021/06/08 07:13:52;;;;;;;14.48;9.85;;;20.20;60.10;;;;;;5136881;27;20530;-37
2021/06/08 07:16:22;;;;;;;14.43;9.80;;;20.40;59.20;;;;;;5136260;27;20033;-37
2021/06/08 07:18:48;;;;;;;19.98;11.20;;;20.40;59.60;;;;;;5136883;27;20020;-37
2021/06/08 07:21:19;;;;;;;12.02;9.77;;;20.40;59.20;;;;;;5136642;27;20034;-37
2021/06/08 07:23:48;;;;;;;13.13;10.80;;;21.00;57.40;;;;;;5136443;27;20040;-37
2021/06/08 07:26:22;;;;;;;25.10;10.20;;;21.60;55.70;;;;;;5136684;27;20019;-37
2021/06/08 07:28:49;;;;;;;18.27;8.95;;;22.30;53.60;;;;;;5136180;27;20061;-37
2021/06/08 07:31:37;;;;;;;12.25;8.82;;;22.20;53.80;;;;;;5136514;27;20080;-37
2021/06/08 07:34:06;;;;;;;12.48;9.50;;;22.90;52.20;;;;;;5137116;27;20102;-37
2021/06/08 07:36:46;;;;;;;12.48;9.23;;;22.80;52.20;;;;;;5136163;27;20112;-38
2021/06/08 07:39:24;;;;;;;19.27;9.80;;;22.80;53.10;;;;;;5135283;27;20055;-38
2021/06/08 07:42:15;;;;;;;12.90;8.32;;;23.10;51.30;;;;;;5137169;27;20019;-38
2021/06/08 07:44:52;;;;;;;12.23;8.70;;;22.80;52.10;;;;;;5137127;27;20458;-38
2021/06/08 07:47:20;;;;;;;14.13;9.82;;;23.40;50.90;;;;;;5135320;27;20076;-37
2021/06/08 07:49:49;;;;;;;11.05;8.38;;;23.50;50.50;;;;;;5136238;27;20029;-36
2021/06/08 07:52:18;;;;;;;9.75;8.48;;;23.00;52.20;;;;;;5136093;27;20098;-36
2021/06/08 07:54:46;;;;;;;11.25;9.65;;;22.60;53.70;;;;;;5135979;27;20378;-37
2021/06/08 07:57:12;;;;;;;14.23;9.52;;;22.50;53.30;;;;;;5136461;27;20034;-37
2021/06/08 07:59:41;;;;;;;13.70;10.48;;;22.10;55.50;;;;;;5135913;27;20050;-37
2021/06/08 08:02:08;;;;;;;15.52;11.32;;;23.00;52.60;;;;;;5135984;27;20050;-38
2021/06/08 08:04:38;;;;;;;15.63;11.98;;;23.30;51.40;;;;;;5117221;27;20079;-37
2021/06/08 08:07:04;;;;;;;17.08;11.48;;;23.20;50.80;;;;;;5135997;27;20032;-38
2021/06/08 08:09:30;;;;;;;9.52;7.75;;;22.90;52.00;;;;;;5136398;27;20027;-38
2021/06/08 08:11:57;;;;;;;15.40;9.88;;;22.80;51.00;;;;;;5135847;27;20460;-37
2021/06/08 08:14:25;;;;;;;12.43;9.35;;;23.20;50.50;;;;;;5137173;27;20023;-38
2021/06/08 08:16:56;;;;;;;15.68;9.32;;;23.30;50.10;;;;;;5135004;27;20031;-39
2021/06/08 08:19:23;;;;;;;9.77;6.35;;;23.30;50.30;;;;;;5134888;27;20051;-37
2021/06/08 08:21:50;;;;;;;7.15;5.63;;;24.90;43.50;;;;;;5136029;27;20027;-38
2021/06/08 08:24:16;;;;;;;6.53;5.13;;;25.10;41.90;;;;;;5135761;27;20086;-38
2021/06/08 08:26:42;;;;;;;11.57;5.82;;;24.70;42.10;;;;;;5135150;27;20119;-38
2021/06/08 08:29:08;;;;;;;9.88;5.78;;;25.00;42.00;;;;;;5134621;27;20023;-39
2021/06/08 08:31:34;;;;;;;10.75;6.13;;;25.30;41.40;;;;;;5135570;27;20024;-38
2021/06/08 08:34:00;;;;;;;7.47;6.05;;;24.80;43.20;;;;;;5135909;27;20053;-37
2021/06/08 08:36:29;;;;;;;9.73;6.03;;;25.70;41.70;;;;;;5136099;27;20039;-45
2021/06/08 08:38:56;;;;;;;7.37;5.27;;;25.70;42.60;;;;;;5135482;27;20062;-38
2021/06/08 08:41:22;;;;;;;7.95;4.70;;;24.90;44.30;;;;;;5133832;27;20034;-36
2021/06/08 08:43:50;;;;;;;7.78;4.97;;;25.30;42.00;;;;;;5136171;27;20031;-37
2021/06/08 08:46:18;;;;;;;6.68;5.43;;;25.40;42.40;;;;;;5135104;27;20072;-38
2021/06/08 08:48:45;;;;;;;6.85;5.60;;;24.80;43.80;;;;;;5134402;27;20114;-39
2021/06/08 08:51:13;;;;;;;7.53;5.85;;;23.90;45.80;;;;;;5135041;27;20015;-38
2021/06/08 08:53:40;;;;;;;11.85;5.05;;;24.30;45.30;;;;;;5134806;27;20019;-38
2021/06/08 08:56:06;;;;;;;8.18;5.57;;;24.30;45.50;;;;;;5134636;27;20046;-39
2021/06/08 08:58:33;;;;;;;10.32;5.70;;;25.30;43.40;;;;;;5133648;27;20120;-39
2021/06/08 09:00:59;;;;;;;7.90;4.82;;;25.50;43.10;;;;;;5133907;27;20046;-39
2021/06/08 09:03:25;;;;;;;6.82;4.55;;;25.40;42.70;;;;;;5134946;27;20028;-39
2021/06/08 09:05:56;;;;;;;6.55;4.78;;;25.30;42.80;;;;;;5135083;27;20027;-39
2021/06/08 09:08:22;;;;;;;5.55;5.00;;;24.80;43.50;;;;;;5133886;27;20031;-37
2021/06/08 09:10:49;;;;;;;9.73;6.00;;;25.00;43.30;;;;;;5134864;27;20415;-36
2021/06/08 09:13:15;;;;;;;8.68;5.55;;;24.80;43.90;;;;;;5134650;27;20055;-37
2021/06/08 09:15:41;;;;;;;6.85;6.18;;;24.20;46.40;;;;;;5133664;27;20030;-37
2021/06/08 09:18:08;;;;;;;8.25;6.18;;;23.20;47.80;;;;;;5133338;27;20043;-37
2021/06/08 09:20:34;;;;;;;9.27;6.35;;;22.80;49.60;;;;;;5134570;27;20029;-35
2021/06/08 09:23:05;;;;;;;8.98;6.03;;;23.50;48.00;;;;;;5134690;27;20042;-37
2021/06/08 09:25:37;;;;;;;7.53;6.13;;;23.60;47.40;;;;;;5133181;27;20078;-38
2021/06/08 09:28:35;;;;;;;7.68;6.75;;;23.20;48.40;;;;;;5134586;27;20110;-37
2021/06/08 09:31:04;;;;;;;6.57;5.03;;;23.20;48.50;;;;;;5134584;27;20031;-37
2021/06/08 09:33:37;;;;;;;8.23;5.30;;;23.20;49.00;;;;;;5134760;27;20023;-38
2021/06/08 09:36:15;;;;;;;7.43;5.38;;;23.50;48.30;;;;;;5134841;27;20195;-37
2021/06/08 09:39:02;;;;;;;6.93;6.18;;;23.60;48.30;;;;;;5134481;27;20031;-37
2021/06/08 09:41:44;;;;;;;8.40;5.82;;;23.20;48.60;;;;;;5118965;27;20067;-38
2021/06/08 09:44:14;;;;;;;9.77;6.20;;;23.10;49.10;;;;;;5134074;27;20035;-38
2021/06/08 09:46:48;;;;;;;9.52;7.30;;;22.50;51.20;;;;;;5134258;27;20074;-37
2021/06/08 09:49:32;;;;;;;9.38;6.53;;;22.20;51.60;;;;;;5133238;27;20360;-38
2021/06/08 09:52:08;;;;;;;8.15;5.82;;;23.00;49.90;;;;;;5134981;27;20020;-37
2021/06/08 09:54:45;;;;;;;7.10;6.40;;;24.30;46.40;;;;;;5134302;27;20121;-39
2021/06/08 09:57:14;;;;;;;9.20;7.13;;;25.20;45.00;;;;;;5133262;27;20055;-37
2021/06/08 09:59:58;;;;;;;8.20;6.68;;;25.80;43.20;;;;;;5133045;27;20030;-37
2021/06/08 10:02:45;;;;;;;9.45;6.63;;;26.00;43.20;;;;;;5133607;27;20031;-37
2021/06/08 10:05:30;;;;;;;8.57;6.65;;;25.30;43.90;;;;;;5134613;27;20054;-38
2021/06/08 10:07:59;;;;;;;13.70;7.88;;;25.50;43.70;;;;;;5133920;27;20055;-38
2021/06/08 10:10:45;;;;;;;8.50;5.97;;;25.20;44.30;;;;;;5134908;27;20023;-37
2021/06/08 10:13:16;;;;;;;10.23;6.30;;;24.80;45.20;;;;;;5134124;28;20470;-37
2021/06/08 10:16:07;;;;;;;8.50;6.68;;;24.00;46.30;;;;;;5116352;28;20027;-37
2021/06/08 10:18:43;;;;;;;12.48;7.35;;;23.50;48.10;;;;;;5134226;27;20020;-36
2021/06/08 10:21:09;;;;;;;10.55;7.68;;;23.30;48.60;;;;;;5115240;28;20031;-37
2021/06/08 10:23:35;;;;;;;8.23;6.88;;;23.00;49.50;;;;;;5133719;27;20438;-38
2021/06/08 10:26:04;;;;;;;9.48;6.88;;;23.20;48.90;;;;;;5132186;28;20076;-37
2021/06/08 10:28:30;;;;;;;11.10;7.07;;;23.30;48.80;;;;;;5136958;27;20023;-36
2021/06/08 10:31:00;;;;;;;8.77;6.70;;;23.30;48.80;;;;;;5137753;27;20023;-38
2021/06/08 10:33:27;;;;;;;10.05;6.45;;;23.50;48.50;;;;;;5137886;27;20065;-38
2021/06/08 10:35:54;;;;;;;10.45;7.32;;;23.00;49.40;;;;;;5137396;27;20016;-38
2021/06/08 10:38:21;;;;;;;11.27;7.78;;;22.80;50.30;;;;;;5136061;27;20107;-36
2021/06/08 10:40:52;;;;;;;8.30;7.38;;;23.40;48.80;;;;;;5138333;27;20034;-37
2021/06/08 10:43:24;;;;;;;9.10;6.28;;;24.10;47.00;;;;;;5136826;27;20023;-38
2021/06/08 10:45:54;;;;;;;8.15;5.78;;;24.90;44.90;;;;;;5136517;27;20023;-37
2021/06/08 10:48:22;;;;;;;;;;;25.60;43.80;;;;;;5136162;27;20030;-37
2021/06/08 10:50:50;;;;;;;9.82;6.03;;;25.20;43.60;;;;;;5137148;27;19903;-37
2021/06/08 10:53:34;;;;;;;14.02;7.35;;;25.20;44.00;;;;;;5137303;27;20071;-38
2021/06/08 10:56:01;;;;;;;8.30;6.25;;;25.60;43.00;;;;;;5137557;27;20094;-37
2021/06/08 10:58:50;;;;;;;8.50;5.20;;;26.30;42.20;;;;;;5137557;27;20107;-36
2021/06/08 11:01:34;;;;;;;10.70;6.55;;;26.40;41.50;;;;;;5137096;27;20045;-37
2021/06/08 11:04:01;;;;;;;7.63;6.13;;;26.40;40.50;;;;;;5136846;27;20102;-38
2021/06/08 11:06:47;;;;;;;6.95;5.40;;;27.00;39.70;;;;;;5135724;27;20031;-46
2021/06/08 11:09:15;;;;;;;9.93;7.43;;;26.90;40.50;;;;;;5135752;27;20023;-38
2021/06/08 11:11:42;;;;;;;7.38;5.90;;;26.60;40.90;;;;;;5137202;27;20043;-36
2021/06/08 11:14:28;;;;;;;9.43;6.90;;;27.20;39.90;;;;;;5138280;27;20015;-39
2021/06/08 11:17:04;;;;;;;8.98;6.28;;;26.10;41.00;;;;;;5137524;27;20027;-38
2021/06/08 11:19:52;;;;;;;8.10;5.88;;;25.30;42.90;;;;;;5137660;27;20029;-37
2021/06/08 11:22:42;;;;;;;7.28;5.70;;;24.80;43.50;;;;;;5137833;27;20054;-38
2021/06/08 11:25:30;;;;;;;7.03;6.30;;;24.90;44.10;;;;;;5135206;27;20050;-37
2021/06/08 11:27:56;;;;;;;7.63;5.70;;;24.40;45.10;;;;;;5137848;27;20486;-37
2021/06/08 11:30:31;;;;;;;6.82;5.25;;;24.30;45.80;;;;;;5118324;27;20026;-38
2021/06/08 11:32:58;;;;;;;9.88;6.68;;;25.60;42.80;;;;;;5138103;27;20026;-37
2021/06/08 11:35:41;;;;;;;15.02;6.85;;;25.70;42.10;;;;;;5118645;27;20140;-37
2021/06/08 11:38:24;;;;;;;11.43;6.93;;;25.30;43.60;;;;;;5136885;27;20378;-38
2021/06/08 11:41:00;;;;;;;8.20;6.07;;;25.00;44.60;;;;;;5136996;27;20047;-36
2021/06/08 11:43:25;;;;;;;7.50;6.47;;;24.80;45.20;;;;;;5137103;27;20508;-38
2021/06/08 11:46:12;;;;;;;7.32;5.85;;;25.40;43.00;;;;;;5136724;27;20035;-37
2021/06/08 11:48:47;;;;;;;7.90;6.57;;;26.50;40.80;;;;;;5136676;27;20114;-38
2021/06/08 11:51:16;;;;;;;6.05;5.40;;;27.20;39.40;;;;;;5138409;27;20426;-38
2021/06/08 11:54:03;;;;;;;7.68;6.18;;;28.40;37.10;;;;;;5137039;27;20019;-37
2021/06/08 11:56:49;;;;;;;6.00;5.13;;;27.30;38.70;;;;;;5137435;27;20023;-38
2021/06/08 11:59:18;;;;;;;9.40;6.22;;;27.10;39.20;;;;;;5136649;27;20534;-37
2021/06/08 12:01:55;;;;;;;7.53;6.30;;;26.10;40.20;;;;;;5136826;27;20015;-36
2021/06/08 12:04:22;;;;;;;8.38;6.05;;;26.10;40.70;;;;;;5135775;27;20023;-39
2021/06/08 12:06:56;;;;;;;13.13;6.28;;;26.40;40.70;;;;;;5136981;27;20026;-39
2021/06/08 12:09:23;;;;;;;7.57;6.18;;;27.20;39.60;;;;;;5137154;27;20027;-37
2021/06/08 12:11:50;;;;;;;9.20;6.13;;;26.40;41.20;;;;;;5136445;27;20084;-37
2021/06/08 12:14:18;;;;;;;8.38;6.13;;;26.20;41.70;;;;;;5136935;27;20514;-37
2021/06/08 12:16:50;;;;;;;6.47;5.65;;;27.10;39.30;;;;;;5134903;27;20015;-37
2021/06/08 12:19:17;;;;;;;6.55;5.95;;;28.40;37.00;;;;;;5135903;27;20015;-38
2021/06/08 12:21:44;;;;;;;7.25;5.53;;;29.50;34.70;;;;;;5117409;27;20019;-38
2021/06/08 12:24:20;;;;;;;7.68;6.15;;;28.30;36.80;;;;;;5135941;27;20482;-37
2021/06/08 12:26:55;;;;;;;9.10;5.75;;;27.50;38.10;;;;;;5135959;27;20102;-38
2021/06/08 12:29:22;;;;;;;12.55;5.38;;;26.90;39.60;;;;;;5135704;27;20102;-36
2021/06/08 12:32:10;;;;;;;6.72;4.85;;;26.70;40.90;;;;;;5136340;27;20514;-37
2021/06/08 12:34:38;;;;;;;7.78;6.00;;;27.00;40.40;;;;;;5135506;27;20075;-38
2021/06/08 12:37:04;;;;;;;6.45;5.38;;;27.30;38.30;;;;;;5135274;27;20382;-38
2021/06/08 12:39:34;;;;;;;5.70;5.10;;;28.70;36.60;;;;;;5134030;27;20100;-46
2021/06/08 12:42:15;;;;;;;9.98;5.68;;;29.30;35.50;;;;;;5134783;27;20110;-38
2021/06/08 12:44:46;;;;;;;5.88;5.25;;;30.20;33.60;;;;;;5135909;27;20055;-38
2021/06/08 12:47:21;;;;;;;5.88;5.38;;;30.20;32.90;;;;;;5136550;27;20115;-38
2021/06/08 12:49:48;;;;;;;5.97;5.10;;;30.60;32.30;;;;;;5135195;27;20030;-38
2021/06/08 12:52:21;;;;;;;6.75;5.13;;;31.50;31.50;;;;;;5117538;27;20023;-37